Time;durP1;ratioP1;P1;durP2;ratioP2;P2;SDS_P1;SDS_P2;PMS_P1;PMS_P2;Temp;Humidity;BMP_temperature;BMP_pressure;BME280_temperature;BME280_humidity;BME280_pressure;Samples;Min_cycle;Max_cycle;Signal;HPM_P1;HPM_P2
2023/10/10 00:00:55;;;;;;;11.88;5.22;;;;;;;;;;5088526;28;20036;-77
2023/10/10 00:03:27;;;;;;;11.95;5.90;;;;;;;;;;5069375;28;20087;-78
2023/10/10 00:05:55;;;;;;;8.88;4.93;;;;;;;;;;5068751;28;20481;-78
2023/10/10 00:08:27;;;;;;;9.38;4.80;;;;;;;;;;5064690;28;20032;-77
2023/10/10 00:10:55;;;;;;;7.47;4.68;;;;;;;;;;5072600;28;20032;-78
2023/10/10 00:13:23;;;;;;;9.48;4.75;;;;;;;;;;5072941;28;20074;-77
2023/10/10 00:16:01;;;;;;;7.45;4.78;;;;;;;;;;5071139;28;20036;-76
2023/10/10 00:18:29;;;;;;;10.95;5.63;;;;;;;;;;5070285;28;20576;-76
2023/10/10 00:21:06;;;;;;;7.68;5.50;;;;;;;;;;5066748;28;20089;-77
2023/10/10 00:23:38;;;;;;;12.75;5.93;;;;;;;;;;5073097;28;20032;-76
2023/10/10 00:26:05;;;;;;;7.40;5.47;;;;;;;;;;5072812;28;20480;-76
2023/10/10 00:28:34;;;;;;;11.48;6.13;;;;;;;;;;5073374;28;20086;-77
2023/10/10 00:31:05;;;;;;;9.15;5.63;;;;;;;;;;5064587;28;20112;-78
2023/10/10 00:33:31;;;;;;;11.52;5.82;;;;;;;;;;5088614;28;20139;-76
2023/10/10 00:35:58;;;;;;;9.43;5.95;;;;;;;;;;5071964;28;20027;-76
2023/10/10 00:38:25;;;;;;;8.52;6.03;;;;;;;;;;5062611;28;20029;-78
2023/10/10 00:40:51;;;;;;;9.25;5.53;;;;;;;;;;5054669;28;20090;-78
2023/10/10 00:43:22;;;;;;;9.77;5.75;;;;;;;;;;5069957;28;20066;-77
2023/10/10 00:45:52;;;;;;;8.82;5.30;;;;;;;;;;5073082;28;20035;-78
2023/10/10 00:48:21;;;;;;;10.43;5.93;;;;;;;;;;5071876;28;20056;-78
2023/10/10 00:50:51;;;;;;;9.45;5.03;;;;;;;;;;5060853;28;20074;-77
2023/10/10 00:53:21;;;;;;;10.32;5.45;;;;;;;;;;5071250;28;20032;-77
2023/10/10 00:55:55;;;;;;;10.40;5.20;;;;;;;;;;5071755;28;20028;-78
2023/10/10 00:58:22;;;;;;;11.30;5.50;;;;;;;;;;5071468;28;20024;-77
2023/10/10 01:00:52;;;;;;;9.85;5.03;;;;;;;;;;5072921;28;20196;-76
2023/10/10 01:03:21;;;;;;;18.98;6.05;;;;;;;;;;5071701;28;20025;-77
2023/10/10 01:05:55;;;;;;;10.43;5.20;;;;;;;;;;5070277;28;20771;-78
2023/10/10 01:08:26;;;;;;;9.55;4.80;;;;;;;;;;5067812;28;20056;-78
2023/10/10 01:11:00;;;;;;;7.05;3.80;;;;;;;;;;5066377;28;20032;-78
2023/10/10 01:13:26;;;;;;;9.48;5.03;;;;;;;;;;5059425;28;20060;-78
2023/10/10 01:15:56;;;;;;;11.15;4.97;;;;;;;;;;5062763;28;20500;-77
2023/10/10 01:18:24;;;;;;;6.63;4.20;;;;;;;;;;5068573;28;20025;-77
2023/10/10 01:20:51;;;;;;;9.88;5.07;;;;;;;;;;5072121;28;20090;-76
2023/10/10 01:23:26;;;;;;;11.27;5.60;;;;;;;;;;5071361;28;20040;-76
2023/10/10 01:25:52;;;;;;;12.27;4.75;;;;;;;;;;5058808;28;20490;-76
2023/10/10 01:28:27;;;;;;;8.02;4.97;;;;;;;;;;5071123;28;20071;-77
2023/10/10 01:33:24;;;;;;;8.40;4.60;;;;;;;;;;5069539;28;20537;-76
2023/10/10 01:35:52;;;;;;;9.13;5.03;;;;;;;;;;5061498;28;20032;-76
2023/10/10 01:38:31;;;;;;;11.75;5.03;;;;;;;;;;5063070;28;20036;-76
2023/10/10 01:40:58;;;;;;;7.07;4.47;;;;;;;;;;5070003;28;20099;-77
2023/10/10 01:43:24;;;;;;;11.68;5.20;;;;;;;;;;5072183;28;20089;-76
2023/10/10 01:46:08;;;;;;;10.40;4.72;;;;;;;;;;5069175;28;20037;-77
2023/10/10 01:48:40;;;;;;;7.97;4.57;;;;;;;;;;5071278;28;20040;-77
2023/10/10 01:51:08;;;;;;;14.00;4.93;;;;;;;;;;5069843;28;20029;-76
2023/10/10 01:53:40;;;;;;;6.60;4.07;;;;;;;;;;5071741;28;20033;-76
2023/10/10 01:56:07;;;;;;;8.07;3.90;;;;;;;;;;5068058;28;20045;-77
2023/10/10 01:58:36;;;;;;;12.27;4.07;;;;;;;;;;5064549;28;20803;-76
2023/10/10 02:01:11;;;;;;;7.65;3.90;;;;;;;;;;5070937;28;20350;-76
2023/10/10 02:03:39;;;;;;;11.73;3.90;;;;;;;;;;5065835;28;20385;-76
2023/10/10 02:06:09;;;;;;;10.02;4.10;;;;;;;;;;5069885;28;20048;-76
2023/10/10 02:08:38;;;;;;;10.13;3.90;;;;;;;;;;5067183;28;20033;-77
2023/10/10 02:11:06;;;;;;;10.85;4.30;;;;;;;;;;5068694;28;20086;-76
2023/10/10 02:13:33;;;;;;;7.63;3.88;;;;;;;;;;5062174;28;20052;-76
2023/10/10 02:16:01;;;;;;;6.18;3.50;;;;;;;;;;5067537;28;20479;-77
2023/10/10 02:18:39;;;;;;;8.88;4.10;;;;;;;;;;5070331;28;20035;-76
2023/10/10 02:21:16;;;;;;;13.82;4.63;;;;;;;;;;5064265;28;20068;-76
2023/10/10 02:23:46;;;;;;;9.25;4.60;;;;;;;;;;5070055;28;20024;-76
2023/10/10 02:26:35;;;;;;;8.85;4.60;;;;;;;;;;5071040;28;20036;-76
2023/10/10 02:29:17;;;;;;;12.73;4.88;;;;;;;;;;5069947;28;20085;-76
2023/10/10 02:31:51;;;;;;;;;;;;;;;;;;5067756;28;20029;-76
2023/10/10 02:34:19;;;;;;;13.75;5.07;;;;;;;;;;5075506;28;19916;-76
2023/10/10 02:36:58;;;;;;;12.52;5.30;;;;;;;;;;5061461;28;20028;-76
2023/10/10 02:39:29;;;;;;;10.25;5.13;;;;;;;;;;5054828;28;20032;-78
2023/10/10 02:42:00;;;;;;;8.45;5.28;;;;;;;;;;5066052;28;20028;-77
2023/10/10 02:44:38;;;;;;;16.75;5.70;;;;;;;;;;5071443;28;20021;-75
2023/10/10 02:47:04;;;;;;;10.15;5.45;;;;;;;;;;5069393;28;20167;-76
2023/10/10 02:49:30;;;;;;;10.20;5.28;;;;;;;;;;5065622;28;20509;-77
2023/10/10 02:51:57;;;;;;;11.98;5.10;;;;;;;;;;5052488;28;20043;-77
2023/10/10 02:54:34;;;;;;;17.15;6.03;;;;;;;;;;5066347;28;20048;-77
2023/10/10 02:59:52;;;;;;;16.90;5.78;;;;;;;;;;5053932;28;20083;-77
2023/10/10 03:02:28;;;;;;;11.40;5.97;;;;;;;;;;5069124;28;20059;-77
2023/10/10 03:07:29;;;;;;;13.85;6.50;;;;;;;;;;5063455;28;20071;-77
2023/10/10 03:12:48;;;;;;;10.90;6.10;;;;;;;;;;5068988;28;20059;-76
2023/10/10 03:15:27;;;;;;;11.60;6.63;;;;;;;;;;5066841;28;20546;-77
2023/10/10 03:20:38;;;;;;;14.30;6.07;;;;;;;;;;5060776;28;20504;-79
2023/10/10 03:25:47;;;;;;;12.13;5.87;;;;;;;;;;5065087;28;20057;-76
2023/10/10 03:28:32;;;;;;;12.88;6.05;;;;;;;;;;5074121;28;20363;-76
2023/10/10 03:31:24;;;;;;;13.75;6.75;;;;;;;;;;5074848;28;20111;-72
2023/10/10 03:37:04;;;;;;;18.15;9.88;;;;;;;;;;5067274;28;20086;-76
2023/10/10 03:39:49;;;;;;;12.77;8.23;;;;;;;;;;5071530;28;20064;-77
2023/10/10 05:23:53;;;;;;;37.78;22.33;;;;;;;;;;5072710;28;20405;-77
2023/10/10 05:26:19;;;;;;;40.53;21.83;;;;;;;;;;5059895;28;20028;-78
2023/10/10 05:28:45;;;;;;;48.60;26.33;;;;;;;;;;5071743;28;20060;-77
2023/10/10 05:31:11;;;;;;;40.97;23.05;;;;;;;;;;5071542;28;20042;-77
2023/10/10 05:33:37;;;;;;;45.97;23.17;;;;;;;;;;5071879;28;20052;-77
2023/10/10 05:36:06;;;;;;;44.78;23.67;;;;;;;;;;5084599;28;20052;-77
2023/10/10 05:38:35;;;;;;;42.35;24.05;;;;;;;;;;5067467;28;20119;-78
2023/10/10 05:41:02;;;;;;;41.60;23.42;;;;;;;;;;5072325;28;20478;-79
2023/10/10 05:43:33;;;;;;;46.85;25.45;;;;;;;;;;5070401;28;20071;-78
2023/10/10 05:46:00;;;;;;;46.67;24.83;;;;;;;;;;5060992;28;20119;-79
2023/10/10 05:48:26;;;;;;;41.42;24.17;;;;;;;;;;5066606;28;20474;-77
2023/10/10 05:50:53;;;;;;;45.08;24.52;;;;;;;;;;5071237;28;20060;-78
2023/10/10 05:53:20;;;;;;;44.60;24.55;;;;;;;;;;5070272;28;20500;-77
2023/10/10 05:55:53;;;;;;;38.22;23.88;;;;;;;;;;5071265;28;20506;-77
2023/10/10 05:58:20;;;;;;;46.25;24.10;;;;;;;;;;5066893;28;20036;-78
2023/10/10 06:00:48;;;;;;;43.53;23.55;;;;;;;;;;5075826;28;20024;-78
2023/10/10 06:03:16;;;;;;;44.40;23.45;;;;;;;;;;5068894;28;20036;-77
2023/10/10 06:05:44;;;;;;;42.35;23.55;;;;;;;;;;5071190;28;20056;-79
2023/10/10 06:08:12;;;;;;;39.63;23.63;;;;;;;;;;5070781;28;20039;-78
2023/10/10 06:10:38;;;;;;;41.47;22.75;;;;;;;;;;5067051;28;20029;-77
2023/10/10 06:13:06;;;;;;;42.97;22.30;;;;;;;;;;5069596;28;20045;-76
2023/10/10 06:15:35;;;;;;;41.08;22.67;;;;;;;;;;5071383;28;20040;-79
2023/10/10 06:18:08;;;;;;;37.97;22.02;;;;;;;;;;5067372;28;20039;-78
2023/10/10 06:20:43;;;;;;;34.58;21.65;;;;;;;;;;5063851;28;20121;-77
2023/10/10 06:23:16;;;;;;;41.08;22.00;;;;;;;;;;5066756;28;20145;-79
2023/10/10 06:25:43;;;;;;;39.63;23.52;;;;;;;;;;5063742;28;20040;-76
2023/10/10 06:28:29;;;;;;;46.25;22.05;;;;;;;;;;5070572;28;20039;-78
2023/10/10 06:30:55;;;;;;;34.38;21.30;;;;;;;;;;5070715;28;20024;-77
2023/10/10 06:33:27;;;;;;;36.20;20.75;;;;;;;;;;5069674;28;20035;-75
2023/10/10 06:41:38;;;;;;;33.83;18.90;;;;;;;;;;5059614;28;20081;-78
2023/10/10 06:44:04;;;;;;;33.33;20.45;;;;;;;;;;5066532;28;20457;-78
2023/10/10 06:46:32;;;;;;;30.65;19.25;;;;;;;;;;5070245;28;20505;-81
2023/10/10 06:49:06;;;;;;;35.10;20.30;;;;;;;;;;5068651;28;20036;-78
2023/10/10 06:51:39;;;;;;;31.63;19.73;;;;;;;;;;5069817;28;20033;-76
2023/10/10 06:54:27;;;;;;;42.50;20.52;;;;;;;;;;5069040;28;20448;-80
2023/10/10 06:59:27;;;;;;;38.22;21.30;;;;;;;;;;5067496;28;20453;-77
2023/10/10 07:01:53;;;;;;;35.70;21.17;;;;;;;;;;5069150;28;20029;-81
2023/10/10 07:04:19;;;;;;;42.97;22.75;;;;;;;;;;5070851;28;20043;-78
2023/10/10 07:06:47;;;;;;;54.67;25.20;;;;;;;;;;5072621;28;20028;-80
2023/10/10 07:09:29;;;;;;;38.03;24.42;;;;;;;;;;5066377;28;20025;-80
2023/10/10 07:11:56;;;;;;;45.42;27.40;;;;;;;;;;5068241;28;20036;-83
2023/10/10 07:14:25;;;;;;;47.47;27.75;;;;;;;;;;5069900;28;20027;-85
2023/10/10 07:16:54;;;;;;;47.17;27.60;;;;;;;;;;5066410;28;20500;-83
2023/10/10 07:19:30;;;;;;;49.55;26.80;;;;;;;;;;5060105;28;20032;-82
2023/10/10 07:21:56;;;;;;;49.85;28.73;;;;;;;;;;5061987;28;20029;-75
2023/10/10 07:24:28;;;;;;;54.72;30.67;;;;;;;;;;5066547;28;20051;-75
2023/10/10 07:27:13;;;;;;;52.72;30.05;;;;;;;;;;5066642;28;20021;-75
2023/10/10 07:32:17;;;;;;;55.65;36.00;;;;;;;;;;5069608;28;20040;-74
2023/10/10 07:34:54;;;;;;;51.05;31.52;;;;;;;;;;5069968;28;20032;-75
2023/10/10 07:37:23;;;;;;;48.40;29.70;;;;;;;;;;5067337;28;20047;-75
2023/10/10 07:39:55;;;;;;;55.92;31.30;;;;;;;;;;5067348;28;20039;-75
2023/10/10 07:42:27;;;;;;;;;;;16.50;99.90;;;;;;5083509;28;20040;-75
2023/10/10 07:44:54;;;;;;;49.87;29.77;;;;;;;;;;5074535;28;19931;-75
2023/10/10 07:47:25;;;;;;;51.88;30.80;;;;;;;;;;5068719;28;20279;-74
2023/10/10 07:49:52;;;;;;;56.70;31.35;;;;;;;;;;5061575;28;20479;-75
2023/10/10 07:52:20;;;;;;;52.83;30.77;;;;;;;;;;5071048;28;20047;-76
2023/10/10 07:54:46;;;;;;;69.65;42.38;;;;;;;;;;5070850;28;20032;-75
2023/10/10 07:57:22;;;;;;;107.68;72.18;;;;;;;;;;5070094;28;20114;-75
2023/10/10 07:59:58;;;;;;;54.78;30.88;;;;;;;;;;5066725;28;20036;-74
2023/10/10 08:02:24;;;;;;;50.58;31.02;;;;;;;;;;5068279;28;20043;-73
2023/10/10 08:04:54;;;;;;;51.58;32.20;;;;;;;;;;5067712;28;20040;-72
2023/10/10 08:07:20;;;;;;;45.47;30.63;;;;;;;;;;5068822;28;20156;-72
2023/10/10 08:09:48;;;;;;;51.67;32.85;;;;;;;;;;5061443;28;20031;-73
2023/10/10 08:12:15;;;;;;;50.13;33.38;;;;;;;;;;5057760;28;20070;-72
2023/10/10 08:14:41;;;;;;;46.97;29.33;;;;;;;;;;5058920;28;20040;-72
2023/10/10 08:17:19;;;;;;;47.10;30.27;;;;;;;;;;5072147;28;20039;-74
2023/10/10 08:19:50;;;;;;;83.75;54.17;;;;;;;;;;5071546;28;20055;-79
2023/10/10 08:22:17;;;;;;;52.57;36.50;;;;;;;;;;5071247;28;20031;-78
2023/10/10 08:24:43;;;;;;;48.60;30.20;;;;;;;;;;5072340;28;20072;-75
2023/10/10 08:27:11;;;;;;;57.40;31.55;;;;;;;;;;5077497;28;20500;-73
2023/10/10 08:29:38;;;;;;;49.47;32.58;;;;;;;;;;5072188;28;20025;-73
2023/10/10 08:32:05;;;;;;;54.28;32.05;;;;;;;;;;5071028;28;20029;-73
2023/10/10 08:34:31;;;;;;;58.67;32.80;;;;;;;;;;5071488;28;20029;-74
2023/10/10 08:37:03;;;;;;;50.90;32.67;;;;;;;;;;5063911;28;20383;-73
2023/10/10 08:39:35;;;;;;;54.70;32.95;;;;;;;;;;5073903;28;20035;-73
2023/10/10 08:42:14;;;;;;;57.63;33.42;;;;;;;;;;5071126;28;20470;-74
2023/10/10 08:44:40;;;;;;;58.45;40.00;;;;;;;;;;5084923;28;20033;-76
2023/10/10 08:47:07;;;;;;;110.78;72.43;;;;;;;;;;5067966;28;20526;-75
2023/10/10 08:49:35;;;;;;;56.35;34.17;;;;;;;;;;5085836;28;20473;-73
2023/10/10 08:52:03;;;;;;;56.40;34.15;;;;;;;;;;5057557;28;20025;-74
2023/10/10 08:54:29;;;;;;;55.38;34.92;;;;;;;;;;5068467;28;20379;-73
2023/10/10 08:57:56;;;;;;;56.10;36.17;;;;;;;;;;5059466;28;20021;-75
2023/10/10 08:59:52;;;;;;;55.28;35.53;;;;;;;;;;5070951;28;20882;-75
2023/10/10 09:02:20;;;;;;;60.10;35.97;;;;;;;;;;5071191;28;20368;-77
2023/10/10 09:04:46;;;;;;;58.58;35.45;;;;;;;;;;5069141;28;20036;-75
2023/10/10 09:07:20;;;;;;;58.42;35.03;;;;;;;;;;5066471;28;20023;-76
2023/10/10 09:09:54;;;;;;;61.67;36.38;;;;;;;;;;5070824;28;20418;-76
2023/10/10 09:12:21;;;;;;;58.72;36.08;;;;;;;;;;5066300;28;20044;-76
2023/10/10 09:14:50;;;;;;;55.03;35.90;;;;;;;;;;5067791;28;20032;-76
2023/10/10 09:17:32;;;;;;;53.65;35.55;;;;;;;;;;5060793;28;20666;-76
2023/10/10 09:19:58;;;;;;;58.22;37.42;;;;;;;;;;5070680;28;20033;-75
2023/10/10 09:22:43;;;;;;;54.58;34.15;;;;;;;;;;5070840;28;20051;-76
2023/10/10 09:25:25;;;;;;;53.28;35.33;;;;;;;;;;5074409;28;20500;-76
2023/10/10 09:28:03;;;;;;;54.63;34.92;;;;;;;;;;5062854;28;20024;-75
2023/10/10 09:30:34;;;;;;;60.35;34.85;;;;;;;;;;5069178;28;20043;-76
2023/10/10 09:33:12;;;;;;;49.05;33.25;;;;;;;;;;5068207;28;20528;-75
2023/10/10 09:35:39;;;;;;;47.67;33.20;;;;;;;;;;5070472;28;20474;-76
2023/10/10 09:38:06;;;;;;;50.50;31.40;;;;;;;;;;5067265;28;20052;-76
2023/10/10 09:40:33;;;;;;;47.53;29.02;;;;;;;;;;5066665;28;20055;-77
2023/10/10 09:45:51;;;;;;;52.03;36.47;;;;;;;;;;5067985;28;20165;-78
2023/10/10 09:48:46;;;;;;;44.95;29.50;;;;;;;;;;5070414;28;20038;-76
2023/10/10 09:54:18;;;;;;;41.15;28.83;;;;;;;;;;5068090;28;20045;-74
2023/10/10 09:56:48;;;;;;;46.83;27.80;;;;;;;;;;5061640;28;20029;-74
2023/10/10 09:59:28;;;;;;;46.85;29.02;;;;;;;;;;5056842;28;20123;-74
2023/10/10 10:01:59;;;;;;;45.78;28.63;;;;;;;;;;5064003;28;20025;-73
2023/10/10 10:04:28;;;;;;;44.90;26.97;;;;;;;;;;5068108;28;20135;-75
2023/10/10 10:07:12;;;;;;;38.30;25.75;;;;;;;;;;5067396;28;20024;-74
2023/10/10 10:09:51;;;;;;;38.90;26.45;;;;;;;;;;5068157;28;20028;-74
2023/10/10 10:12:19;;;;;;;42.67;26.88;;;;;;;;;;5061345;28;20107;-75
2023/10/10 10:14:59;;;;;;;44.88;26.15;;;;;;;;;;5063226;28;21110;-74
2023/10/10 10:17:54;;;;;;;43.08;26.67;;;;;;;;;;5066055;28;20024;-74
2023/10/10 10:20:49;;;;;;;35.05;24.63;;;;;;;;;;5068695;28;20115;-71
2023/10/10 10:23:27;;;;;;;41.35;25.15;;;;;;;;;;5057394;28;20090;-73
2023/10/10 10:26:10;;;;;;;41.03;25.17;;;;;;;;;;5068585;28;20181;-73
2023/10/10 10:28:36;;;;;;;39.78;25.08;;;;;;;;;;5071189;28;20025;-72
2023/10/10 10:31:07;;;;;;;33.58;24.23;;;;;;;;;;5070564;28;20040;-73
2023/10/10 10:33:36;;;;;;;37.00;24.58;;;;;;;;;;5070630;28;20036;-72
2023/10/10 10:36:14;;;;;;;33.90;23.67;;;;;;;;;;5064623;28;20056;-72
2023/10/10 10:38:53;;;;;;;41.80;22.75;;;;;;;;;;5084648;28;20036;-74
2023/10/10 10:41:41;;;;;;;37.03;23.63;;;;;;;;;;5061390;28;20484;-74
2023/10/10 10:44:09;;;;;;;30.58;21.55;;;;;;;;;;5063827;28;20059;-72
2023/10/10 10:46:39;;;;;;;38.20;23.00;;;;;;;;;;5066290;28;20044;-72
2023/10/10 10:49:07;;;;;;;35.30;21.40;;;;;;;;;;5066829;28;20029;-75
2023/10/10 10:51:43;;;;;;;31.00;20.88;;;;;;;;;;5063104;28;20033;-74
2023/10/10 10:54:10;;;;;;;33.80;20.25;;;;;;;;;;5070772;28;20036;-75
2023/10/10 10:59:12;;;;;;;63.03;26.90;;;;;;;;;;5069357;28;20037;-75
2023/10/10 11:04:42;;;;;;;28.27;16.13;;;;;;;;;;5068583;28;20128;-70
2023/10/10 11:07:40;;;;;;;26.80;17.02;;;;;;;;;;5080951;28;20032;-74
2023/10/10 11:10:06;;;;;;;25.83;15.52;;;;;;;;;;5068765;28;20032;-71
2023/10/10 11:12:36;;;;;;;26.25;15.15;;;;;;;;;;5067783;28;20139;-73
2023/10/10 11:15:07;;;;;;;23.58;15.07;;;;;;;;;;5061734;28;20078;-73
2023/10/10 11:17:38;;;;;;;23.60;16.10;;;;;;;;;;5060255;28;20032;-72
2023/10/10 11:20:26;;;;;;;25.05;15.43;;;;;;;;;;5068979;28;20029;-73
2023/10/10 11:22:55;;;;;;;27.98;16.35;;;;;;;;;;5064714;28;20098;-74
2023/10/10 11:25:37;;;;;;;69.85;49.63;;;;;;;;;;5066623;28;20029;-72
2023/10/10 11:28:05;;;;;;;29.83;16.17;;;;;;;;;;5055702;28;20040;-71
2023/10/10 11:30:33;;;;;;;24.50;16.63;;;;;;;;;;5067007;28;20070;-72
2023/10/10 11:33:20;;;;;;;27.63;17.20;;;;;;;;;;5065079;28;20037;-74
2023/10/10 11:35:48;;;;;;;30.25;16.98;;;;;;;;;;5078967;28;20035;-74
2023/10/10 11:38:18;;;;;;;33.67;17.85;;;;;;;;;;5065290;28;20049;-76
2023/10/10 11:40:52;;;;;;;29.42;18.05;;;;;;;;;;5060724;28;20107;-75
2023/10/10 11:43:19;;;;;;;29.17;16.73;;;;;;;;;;5052224;28;20521;-74
2023/10/10 11:45:53;;;;;;;33.80;19.00;;;;;;;;;;5066902;28;20024;-75
2023/10/10 11:48:19;;;;;;;36.92;19.33;;;;;;;;;;5060725;28;20041;-76
2023/10/10 11:50:46;;;;;;;26.33;18.00;;;;;;;;;;5066934;28;20024;-76
2023/10/10 11:53:27;;;;;;;29.15;17.85;;;;;;;;;;5064703;28;20089;-75
2023/10/10 11:56:04;;;;;;;29.92;19.02;;;;;;;;;;5067372;28;20474;-74
2023/10/10 11:58:36;;;;;;;28.20;18.17;;;;;;;;;;5062481;28;20374;-75
2023/10/10 12:01:10;;;;;;;;;;;22.50;99.90;;;;;;5072125;28;20472;-76
2023/10/10 12:06:13;;;;;;;25.75;17.80;;;;;;;;;;5072373;28;20119;-74
2023/10/10 12:08:39;;;;;;;29.83;17.83;;;;;;;;;;5071609;28;20021;-75
2023/10/10 12:11:12;;;;;;;23.17;16.08;;;;;;;;;;5067222;28;20051;-74
2023/10/10 12:13:38;;;;;;;28.98;16.77;;;;;;;;;;5060941;28;20036;-77
2023/10/10 12:16:10;;;;;;;27.95;17.85;;;;;;;;;;5068873;28;20115;-77
2023/10/10 12:18:43;;;;;;;26.98;17.95;;;;;;;;;;5062483;28;20375;-76
2023/10/10 12:21:10;;;;;;;27.90;18.42;;;;;;;;;;5068592;28;20037;-74
2023/10/10 12:23:36;;;;;;;32.75;19.75;;;;;;;;;;5066285;28;20040;-73
2023/10/10 12:26:03;;;;;;;30.13;18.67;;;;;;;;;;5067285;28;20474;-75
2023/10/10 12:28:29;;;;;;;30.73;18.13;;;;;;;;;;5070825;28;20037;-75
2023/10/10 12:31:02;;;;;;;28.13;20.13;;;;;;;;;;5068036;28;20029;-75
2023/10/10 12:33:28;;;;;;;30.88;20.17;;;;;;;;;;5068263;28;20033;-75
2023/10/10 12:35:56;;;;;;;31.63;19.60;;;;;;;;;;5070123;28;20068;-74
2023/10/10 12:38:22;;;;;;;34.45;19.30;;;;;;;;;;5070075;28;20135;-76
2023/10/10 12:40:51;;;;;;;29.00;19.33;;;;;;;;;;5072081;28;20474;-74
2023/10/10 12:43:18;;;;;;;30.10;18.58;;;;;;;;;;5071129;28;20432;-75
2023/10/10 12:45:45;;;;;;;38.92;20.70;;;;;;;;;;5072816;28;20082;-75
2023/10/10 12:48:20;;;;;;;32.67;19.38;;;;;;;;;;5068659;28;20029;-77
2023/10/10 12:50:46;;;;;;;32.80;21.67;;;;;;;;;;5059670;28;20039;-78
2023/10/10 12:53:15;;;;;;;35.22;20.90;;;;;;;;;;5070338;28;20036;-76
2023/10/10 12:58:28;;;;;;;36.63;25.13;;;;;;;;;;5064075;28;20043;-78
2023/10/10 13:00:56;;;;;;;54.30;37.08;;;;;;;;;;5070909;28;20027;-79
2023/10/10 13:03:23;;;;;;;38.15;23.85;;;;;;;;;;5062395;28;20085;-76
2023/10/10 13:05:52;;;;;;;42.45;23.77;;;;;;;;;;5065693;28;20467;-73
2023/10/10 13:08:20;;;;;;;34.42;22.67;;;;;;;;;;5062518;28;20090;-74
2023/10/10 13:10:54;;;;;;;38.55;24.00;;;;;;;;;;5063753;28;20453;-75
2023/10/10 13:13:26;;;;;;;38.47;24.25;;;;;;;;;;5065797;28;20052;-75
2023/10/10 13:16:07;;;;;;;39.67;25.45;;;;;;;;;;5065951;28;20029;-74
2023/10/10 13:18:33;;;;;;;37.13;25.40;;;;;;;;;;5082939;28;20040;-74
2023/10/10 13:21:00;;;;;;;39.10;24.00;;;;;;;;;;5066092;28;20078;-73
2023/10/10 13:23:26;;;;;;;43.00;26.27;;;;;;;;;;5067756;28;20066;-74
2023/10/10 13:25:52;;;;;;;41.30;27.33;;;;;;;;;;5070036;28;20028;-74
2023/10/10 13:28:20;;;;;;;42.28;28.05;;;;;;;;;;5061227;28;20035;-76
2023/10/10 13:30:46;;;;;;;42.33;25.23;;;;;;;;;;5066562;28;20029;-74
2023/10/10 13:33:21;;;;;;;39.35;25.77;;;;;;;;;;5069537;28;20032;-75
2023/10/10 13:35:48;;;;;;;39.92;25.15;;;;;;;;;;5071965;28;20032;-75
2023/10/10 13:38:15;;;;;;;43.35;26.15;;;;;;;;;;5070807;28;20405;-75
2023/10/10 13:40:46;;;;;;;42.92;23.92;;;;;;;;;;5068108;28;20820;-76
2023/10/10 13:43:16;;;;;;;41.03;25.00;;;;;;;;;;5069232;28;20028;-75
2023/10/10 13:45:43;;;;;;;38.38;25.55;;;;;;;;;;5070355;28;20025;-78
2023/10/10 13:48:13;;;;;;;41.63;24.30;;;;;;;;;;5069315;28;20041;-76
2023/10/10 13:50:42;;;;;;;40.13;24.23;;;;;;;;;;5070903;28;20111;-74
2023/10/10 13:53:15;;;;;;;42.33;24.60;;;;;;;;;;5070065;28;20538;-74
2023/10/10 13:55:42;;;;;;;37.75;23.52;;;;;;;;;;5066075;28;20068;-75
2023/10/10 13:58:10;;;;;;;35.47;23.83;;;;;;;;;;5062907;28;20528;-73
2023/10/10 14:00:36;;;;;;;42.85;25.67;;;;;;;;;;5059795;28;20503;-72
2023/10/10 14:03:05;;;;;;;58.58;37.05;;;;;;;;;;5067124;28;20036;-72
2023/10/10 14:05:41;;;;;;;38.00;25.20;;;;;;;;;;5060415;28;20041;-72
2023/10/10 14:08:09;;;;;;;45.42;25.42;;;;;;;;;;5059295;28;20044;-79
2023/10/10 14:10:38;;;;;;;41.08;25.23;;;;;;;;;;5070340;28;20025;-75
2023/10/10 14:13:20;;;;;;;38.05;24.88;;;;;;;;;;5066148;28;20093;-75
2023/10/10 14:15:56;;;;;;;42.03;24.23;;;;;;;;;;5065012;28;20386;-74
2023/10/10 14:18:26;;;;;;;44.40;25.25;;;;;;;;;;5068087;28;20058;-77
2023/10/10 14:20:53;;;;;;;35.80;23.58;;;;;;;;;;5067399;28;20067;-76
2023/10/10 14:23:20;;;;;;;32.40;24.23;;;;;;;;;;5062344;28;20386;-72
2023/10/10 14:25:47;;;;;;;40.53;24.30;;;;;;;;;;5068131;28;20036;-74
2023/10/10 14:28:16;;;;;;;37.50;24.42;;;;;;;;;;5064181;28;20029;-78
2023/10/10 14:30:51;;;;;;;36.60;24.05;;;;;;;;;;5061734;28;20094;-74
2023/10/10 14:33:17;;;;;;;56.00;36.20;;;;;;;;;;5058177;28;20075;-74
2023/10/10 14:35:44;;;;;;;41.90;28.10;;;;;;;;;;5066030;28;20075;-73
2023/10/10 14:38:14;;;;;;;38.65;23.95;;;;;;;;;;5070638;28;20117;-71
2023/10/10 14:40:41;;;;;;;38.75;24.25;;;;;;;;;;5059665;28;20478;-72
2023/10/10 14:43:07;;;;;;;44.83;25.42;;;;;;;;;;5070857;28;20032;-72
2023/10/10 14:45:34;;;;;;;39.08;23.52;;;;;;;;;;5070161;28;20050;-77
2023/10/10 14:48:04;;;;;;;36.72;23.55;;;;;;;;;;5069385;28;20116;-72
2023/10/10 14:50:36;;;;;;;36.22;24.52;;;;;;;;;;5065435;28;20029;-73
2023/10/10 14:53:08;;;;;;;;;;;20.90;99.90;;;;;;5063360;28;20500;-76
2023/10/10 14:55:39;;;;;;;42.23;24.57;;;;;;;;;;5062457;28;19919;-76
2023/10/10 14:58:09;;;;;;;42.53;23.58;;;;;;;;;;5058538;28;20418;-73
2023/10/10 15:00:40;;;;;;;38.00;23.20;;;;;;;;;;5067229;28;20051;-73
2023/10/10 15:03:12;;;;;;;36.88;23.00;;;;;;;;;;5069586;28;20036;-74
2023/10/10 15:05:49;;;;;;;41.40;23.48;;;;;;;;;;5062839;28;20024;-74
2023/10/10 15:08:16;;;;;;;36.85;22.40;;;;;;;;;;5067879;28;20147;-75
2023/10/10 15:10:42;;;;;;;40.97;23.65;;;;;;;;;;5070093;28;20020;-77
2023/10/10 15:13:08;;;;;;;37.55;22.17;;;;;;;;;;5063597;28;20035;-73
2023/10/10 15:15:35;;;;;;;35.05;22.50;;;;;;;;;;5060120;28;20024;-73
2023/10/10 15:18:01;;;;;;;39.47;22.00;;;;;;;;;;5070483;28;20139;-74
2023/10/10 15:20:27;;;;;;;33.20;21.27;;;;;;;;;;5060390;28;20029;-77
2023/10/10 15:22:54;;;;;;;38.10;21.42;;;;;;;;;;5074529;28;20097;-73
2023/10/10 15:25:21;;;;;;;28.48;19.90;;;;;;;;;;5072752;28;20422;-74
2023/10/10 15:27:49;;;;;;;37.25;19.83;;;;;;;;;;5071671;28;20025;-74
2023/10/10 15:30:15;;;;;;;37.83;21.90;;;;;;;;;;5071575;28;20030;-74
2023/10/10 15:32:47;;;;;;;35.17;20.80;;;;;;;;;;5069914;28;20044;-74
2023/10/10 15:35:20;;;;;;;36.58;20.13;;;;;;;;;;5072452;28;20082;-73
2023/10/10 15:37:47;;;;;;;30.75;18.95;;;;;;;;;;5069780;28;20060;-74
2023/10/10 15:40:20;;;;;;;33.03;20.25;;;;;;;;;;5069456;28;20111;-74
2023/10/10 15:42:58;;;;;;;34.80;20.73;;;;;;;;;;5068598;28;20458;-75
2023/10/10 15:45:24;;;;;;;36.22;20.10;;;;;;;;;;5080981;28;20045;-74
2023/10/10 15:47:54;;;;;;;30.80;19.15;;;;;;;;;;5072822;28;20151;-73
2023/10/10 15:50:21;;;;;;;28.80;18.42;;;;;;;;;;5073424;28;20033;-75
2023/10/10 15:52:50;;;;;;;29.33;19.45;;;;;;;;;;5071484;28;20041;-75
2023/10/10 15:55:23;;;;;;;30.40;18.13;;;;;;;;;;5072450;28;20036;-76
2023/10/10 15:57:52;;;;;;;32.30;19.10;;;;;;;;;;5067497;28;20020;-72
2023/10/10 16:00:21;;;;;;;34.08;19.60;;;;;;;;;;5073691;28;20048;-78
2023/10/10 16:02:52;;;;;;;35.97;19.00;;;;;;;;;;5071491;28;20025;-78
2023/10/10 16:05:18;;;;;;;30.45;18.88;;;;;;;;;;5057736;28;20071;-74
2023/10/10 16:07:46;;;;;;;37.70;19.10;;;;;;;;;;5061961;28;20029;-74
2023/10/10 16:10:13;;;;;;;37.83;19.42;;;;;;;;;;5072771;28;20478;-74
2023/10/10 16:12:42;;;;;;;34.42;18.40;;;;;;;;;;5071810;28;20040;-74
2023/10/10 16:15:10;;;;;;;44.45;19.27;;;;;;;;;;5072645;28;20020;-74
2023/10/10 16:17:36;;;;;;;28.23;18.30;;;;;;;;;;5064950;28;20028;-75
2023/10/10 16:20:06;;;;;;;31.15;19.73;;;;;;;;;;5087894;28;20043;-73
2023/10/10 16:22:35;;;;;;;42.50;27.27;;;;;;;;;;5070796;28;20032;-75
2023/10/10 16:25:02;;;;;;;30.15;20.08;;;;;;;;;;5072054;28;20047;-74
2023/10/10 16:27:31;;;;;;;32.75;16.95;;;;;;;;;;5068582;28;20509;-75
2023/10/10 16:29:57;;;;;;;29.63;17.77;;;;;;;;;;5064100;28;20317;-78
2023/10/10 16:32:23;;;;;;;32.35;19.20;;;;;;;;;;5065189;28;20127;-75
2023/10/10 16:34:49;;;;;;;27.50;17.85;;;;;;;;;;5067919;28;20494;-73
2023/10/10 16:37:18;;;;;;;25.33;16.42;;;;;;;;;;5060864;28;20059;-75
2023/10/10 16:39:45;;;;;;;26.90;16.13;;;;;;;;;;5066771;28;20032;-74
2023/10/10 16:42:11;;;;;;;27.15;17.08;;;;;;;;;;5071210;28;20444;-77
2023/10/10 16:44:37;;;;;;;29.08;16.40;;;;;;;;;;5072689;28;20031;-75
2023/10/10 16:47:04;;;;;;;28.27;16.73;;;;;;;;;;5066186;28;20036;-75
2023/10/10 16:49:30;;;;;;;28.60;16.90;;;;;;;;;;5067468;28;20363;-78
2023/10/10 16:51:56;;;;;;;26.30;16.75;;;;;;;;;;5070544;28;20099;-75
2023/10/10 16:54:22;;;;;;;28.30;16.63;;;;;;;;;;5067826;28;20044;-75
2023/10/10 16:56:48;;;;;;;25.52;16.58;;;;;;;;;;5068648;28;20044;-74
2023/10/10 16:59:14;;;;;;;30.25;16.48;;;;;;;;;;5070964;28;20032;-75
2023/10/10 17:01:42;;;;;;;25.30;15.00;;;;;;;;;;5068720;28;20021;-76
2023/10/10 17:04:08;;;;;;;28.67;15.48;;;;;;;;;;5066525;28;20028;-75
2023/10/10 17:06:35;;;;;;;25.90;15.68;;;;;;;;;;5066318;28;20040;-74
2023/10/10 17:09:03;;;;;;;31.73;16.90;;;;;;;;;;5070264;28;20028;-75